Time;durP1;ratioP1;P1;durP2;ratioP2;P2;SDS_P1;SDS_P2;PMS_P1;PMS_P2;Temp;Humidity;BMP_temperature;BMP_pressure;BME280_temperature;BME280_humidity;BME280_pressure;Samples;Min_cycle;Max_cycle;Signal;HPM_P1;HPM_P2
2023/12/21 00:01:39;;;;;;;9.05;4.65;;;;;;;3.21;96.85;98965.10;1624688;86;25817;-65
2023/12/21 00:04:07;;;;;;;9.75;3.80;;;;;;;3.22;97.26;98963.22;1631863;85;26549;-67
2023/12/21 00:06:34;;;;;;;11.43;4.00;;;;;;;3.21;97.22;98952.30;1630271;86;25504;-67
2023/12/21 00:09:01;;;;;;;10.82;4.78;;;;;;;3.22;97.60;98949.86;1654266;84;27932;-66
2023/12/21 00:11:29;;;;;;;8.80;4.20;;;;;;;3.22;97.45;98945.33;1650381;85;25821;-66
2023/12/21 00:13:56;;;;;;;7.45;3.85;;;;;;;3.23;97.33;98946.89;1658421;84;25522;-66
2023/12/21 00:16:23;;;;;;;11.18;4.95;;;;;;;3.23;97.65;98944.22;1661138;84;25746;-66
2023/12/21 00:18:50;;;;;;;15.68;6.05;;;;;;;3.22;97.52;98950.67;1656356;84;26308;-66
2023/12/21 00:21:18;;;;;;;14.10;4.17;;;;;;;3.24;97.50;98942.36;1655920;84;28371;-67
2023/12/21 00:23:44;;;;;;;10.43;4.55;;;;;;;3.25;97.46;98933.24;1658280;85;26161;-68
2023/12/21 00:26:11;;;;;;;10.90;4.28;;;;;;;3.24;97.14;98943.14;1660956;84;25928;-68
2023/12/21 00:28:38;;;;;;;11.70;4.95;;;;;;;3.25;97.24;98941.26;1665885;84;25759;-67
2023/12/21 00:31:05;;;;;;;10.88;4.03;;;;;;;3.24;97.12;98935.13;1656954;84;25502;-68
2023/12/21 00:33:33;;;;;;;11.25;4.20;;;;;;;3.25;97.29;98924.70;1675266;84;27975;-68
2023/12/21 00:36:00;;;;;;;9.18;4.03;;;;;;;3.25;97.06;98923.89;1661545;84;25870;-68
2023/12/21 00:38:27;;;;;;;10.85;4.05;;;;;;;3.24;96.78;98926.33;1636863;86;25794;-68
2023/12/21 00:40:56;;;;;;;11.05;3.92;;;;;;;3.25;96.86;98926.04;1685812;84;26587;-68
2023/12/21 00:43:23;;;;;;;13.25;4.62;;;;;;;3.25;96.97;98923.89;1656678;84;25909;-68
2023/12/21 00:45:51;;;;;;;9.68;4.53;;;;;;;3.26;96.65;98922.81;1669845;84;28383;-68
2023/12/21 00:48:19;;;;;;;16.35;5.17;;;;;;;3.25;96.84;98918.55;1619290;86;26336;-67
2023/12/21 00:50:46;;;;;;;14.28;5.05;;;;;;;3.26;95.82;98920.92;1643992;85;25588;-67
2023/12/21 00:53:13;;;;;;;9.60;4.50;;;;;;;3.26;96.39;98914.24;1625494;87;26640;-67
2023/12/21 00:55:40;;;;;;;12.30;4.50;;;;;;;3.27;96.29;98920.38;1640384;85;25445;-68
2023/12/21 00:58:07;;;;;;;9.33;4.85;;;;;;;3.26;96.35;98913.45;1640104;85;28457;-68
2023/12/21 01:00:34;;;;;;;14.68;6.00;;;;;;;3.25;96.26;98924.70;1595847;87;25883;-68
2023/12/21 01:03:02;;;;;;;12.13;5.28;;;;;;;3.24;96.21;98910.30;1633667;85;25888;-67
2023/12/21 01:05:29;;;;;;;12.80;5.78;;;;;;;3.23;96.05;98913.48;1641478;85;25646;-67
2023/12/21 01:07:56;;;;;;;13.48;5.35;;;;;;;3.24;96.04;98908.41;1646319;85;25523;-67
2023/12/21 01:10:23;;;;;;;13.40;4.87;;;;;;;3.22;95.83;98911.11;1641164;85;27691;-67
2023/12/21 01:12:51;;;;;;;11.83;4.72;;;;;;;3.20;95.56;98903.37;1634451;85;25432;-67
2023/12/21 01:15:20;;;;;;;11.60;5.30;;;;;;;3.18;95.39;98910.38;1648649;85;25865;-67
2023/12/21 01:17:47;;;;;;;13.25;5.28;;;;;;;3.16;95.38;98906.40;1639531;85;25904;-67
2023/12/21 01:20:15;;;;;;;13.50;5.47;;;;;;;3.15;95.50;98911.48;1631077;85;25491;-68
2023/12/21 01:22:43;;;;;;;11.12;4.92;;;;;;;3.13;95.72;98907.80;1641347;85;27572;-68
2023/12/21 01:25:11;;;;;;;9.65;4.62;;;;;;;3.10;95.87;98899.03;1635085;85;25926;-68
2023/12/21 01:27:37;;;;;;;11.43;4.62;;;;;;;3.10;95.84;98895.02;1637772;85;25469;-68
2023/12/21 01:30:07;;;;;;;13.68;4.95;;;;;;;3.09;95.61;98900.65;1633879;85;26716;-68
2023/12/21 01:32:34;;;;;;;11.35;5.17;;;;;;;3.08;95.64;98886.51;1643793;85;33261;-68
2023/12/21 01:35:04;;;;;;;10.90;4.80;;;;;;;3.09;95.84;98896.09;1642603;85;28470;-67
2023/12/21 01:37:30;;;;;;;9.43;4.55;;;;;;;3.08;96.10;98875.82;1631993;86;25532;-68
2023/12/21 01:39:58;;;;;;;11.73;4.67;;;;;;;3.10;96.39;98880.33;1641975;85;25892;-68
2023/12/21 01:42:25;;;;;;;10.35;4.37;;;;;;;3.13;96.56;98882.94;1630582;86;26612;-68
2023/12/21 01:44:52;;;;;;;11.50;5.00;;;;;;;3.12;96.33;98868.01;1655065;85;25436;-68
2023/12/21 01:47:19;;;;;;;13.28;5.08;;;;;;;3.14;96.27;98868.50;1638839;85;27887;-67
2023/12/21 01:49:46;;;;;;;11.75;4.58;;;;;;;3.13;95.80;98862.89;1628188;85;25829;-67
2023/12/21 01:52:13;;;;;;;13.22;5.70;;;;;;;3.12;95.73;98862.66;1677789;84;25637;-68
2023/12/21 01:54:42;;;;;;;12.07;4.70;;;;;;;3.11;95.56;98859.73;1631700;86;26448;-67
2023/12/21 01:57:09;;;;;;;13.13;4.87;;;;;;;3.13;95.90;98865.56;1630869;85;25859;-67
2023/12/21 01:59:35;;;;;;;14.15;5.30;;;;;;;3.10;95.86;98849.59;1651151;85;27334;-66
2023/12/21 02:02:02;;;;;;;13.95;4.85;;;;;;;3.10;95.59;98860.80;1637549;86;25478;-67
2023/12/21 02:04:29;;;;;;;13.62;4.65;;;;;;;3.09;95.93;98852.01;1629292;86;25853;-68
2023/12/21 02:06:56;;;;;;;11.15;4.67;;;;;;;3.09;95.91;98841.32;1659430;84;25873;-67
2023/12/21 02:09:23;;;;;;;10.40;4.33;;;;;;;3.08;96.00;98844.28;1638821;85;25453;-67
2023/12/21 02:11:50;;;;;;;10.05;4.70;;;;;;;3.08;96.05;98834.93;1635072;85;28054;-67
2023/12/21 02:14:16;;;;;;;10.90;4.92;;;;;;;3.05;96.19;98839.52;1654410;85;26129;-67
2023/12/21 02:17:00;;;;;;;11.22;4.85;;;;;;;3.06;96.11;98835.78;1628828;85;25461;-68
2023/12/21 02:19:27;;;;;;;14.65;4.90;;;;;;;3.04;96.22;98834.73;1681987;84;25811;-68
2023/12/21 02:22:01;;;;;;;12.90;5.28;;;;;;;3.04;96.15;98830.73;1655897;85;25465;-68
2023/12/21 02:24:30;;;;;;;16.20;5.17;;;;;;;3.04;96.37;98830.73;1661157;85;27583;-68
2023/12/21 02:26:57;;;;;;;10.03;4.67;;;;;;;3.05;96.70;98826.98;1662327;84;25459;-67
2023/12/21 02:29:24;;;;;;;14.00;5.30;;;;;;;3.03;96.83;98825.16;1639715;85;25580;-68
2023/12/21 02:31:52;;;;;;;8.70;4.50;;;;;;;3.06;96.94;98827.21;1627251;86;26360;-69
2023/12/21 02:34:18;;;;;;;15.55;4.90;;;;;;;3.06;97.03;98821.87;1631604;85;25430;-69
2023/12/21 02:36:45;;;;;;;16.12;5.87;;;;;;;3.06;97.16;98816.52;1648032;85;27403;-71
2023/12/21 02:39:12;;;;;;;14.43;5.10;;;;;;;3.08;97.24;98809.55;1670203;84;25611;-69
2023/12/21 02:41:40;;;;;;;11.25;4.85;;;;;;;3.09;97.34;98807.14;1648330;85;25833;-69
2023/12/21 02:44:07;;;;;;;14.20;5.03;;;;;;;3.11;97.18;98810.30;1623524;86;26325;-69
2023/12/21 02:46:34;;;;;;;14.03;5.62;;;;;;;3.11;97.39;98800.41;1618510;85;25502;-69
2023/12/21 02:49:02;;;;;;;14.60;5.60;;;;;;;3.12;97.32;98795.88;1634627;85;27552;-69
2023/12/21 02:51:29;;;;;;;14.58;5.22;;;;;;;3.13;97.35;98799.59;1626022;86;25838;-68
2023/12/21 02:53:57;;;;;;;17.32;5.72;;;;;;;3.13;97.32;98784.08;1643925;85;25548;-69
2023/12/21 02:56:24;;;;;;;10.95;4.83;;;;;;;3.14;97.39;98795.02;1642140;85;25963;-69
2023/12/21 02:58:52;;;;;;;9.53;5.58;;;;;;;3.15;97.37;98785.91;1628512;86;26039;-68
2023/12/21 03:01:19;;;;;;;13.18;4.85;;;;;;;3.16;97.34;98779.48;1626125;86;28382;-67
2023/12/21 03:03:46;;;;;;;11.97;4.95;;;;;;;3.17;97.55;98779.74;1633998;86;25549;-67
2023/12/21 03:06:13;;;;;;;10.23;4.80;;;;;;;3.18;97.52;98783.45;1638244;85;25887;-67
2023/12/21 03:08:40;;;;;;;13.78;5.25;;;;;;;3.18;97.41;98783.45;1642002;85;25596;-67
2023/12/21 03:11:07;;;;;;;14.60;4.90;;;;;;;3.20;97.53;98771.11;1640351;85;25433;-67
2023/12/21 03:13:34;;;;;;;10.53;4.35;;;;;;;3.21;97.40;98764.69;1638212;85;27385;-66
2023/12/21 03:16:09;;;;;;;12.75;4.80;;;;;;;3.22;97.39;98758.27;1640995;86;26068;-67
2023/12/21 03:18:36;;;;;;;11.80;5.45;;;;;;;3.25;97.66;98755.53;1634616;85;25954;-66
2023/12/21 03:21:05;;;;;;;15.70;4.58;;;;;;;3.27;97.62;98759.50;1630139;86;25915;-66
2023/12/21 03:23:34;;;;;;;13.60;5.10;;;;;;;3.28;97.47;98745.03;1615487;85;25496;-67
2023/12/21 03:26:00;;;;;;;11.48;4.97;;;;;;;3.28;97.61;98737.02;1628484;86;27326;-67
2023/12/21 03:28:26;;;;;;;11.65;5.50;;;;;;;3.30;97.30;98728.70;1624354;86;25881;-67
2023/12/21 03:30:53;;;;;;;9.38;4.80;;;;;;;3.29;97.26;98715.11;1635447;85;25698;-66
2023/12/21 03:33:20;;;;;;;13.18;5.65;;;;;;;3.30;97.38;98715.34;1609770;87;26693;-66
2023/12/21 03:35:48;;;;;;;17.55;5.00;;;;;;;3.30;97.11;98712.14;1647318;85;26485;-67
2023/12/21 03:38:25;;;;;;;9.83;4.67;;;;;;;3.30;97.06;98706.80;1622180;86;28031;-66
2023/12/21 03:40:53;;;;;;;11.93;4.83;;;;;;;3.30;96.94;98705.46;1628129;86;25856;-66
2023/12/21 03:43:22;;;;;;;8.55;4.37;;;;;;;3.31;97.06;98707.02;1645461;86;25467;-67
2023/12/21 03:45:51;;;;;;;11.60;4.60;;;;;;;3.31;97.04;98703.02;1629453;86;26737;-67
2023/12/21 03:48:18;;;;;;;13.20;5.45;;;;;;;3.31;97.21;98696.34;1629935;86;25872;-67
2023/12/21 03:50:45;;;;;;;15.53;4.62;;;;;;;3.32;97.23;98682.42;1639292;86;27975;-66
2023/12/21 03:53:14;;;;;;;10.82;4.55;;;;;;;3.32;97.26;98685.91;1644422;85;25530;-67
2023/12/21 03:55:42;;;;;;;8.25;4.35;;;;;;;3.33;97.25;98679.45;1633318;86;25927;-67
2023/12/21 03:58:09;;;;;;;10.27;5.17;;;;;;;3.34;97.19;98674.91;1664798;85;26669;-67
2023/12/21 04:00:36;;;;;;;8.53;4.12;;;;;;;3.33;97.03;98671.43;1632503;85;25652;-67
2023/12/21 04:03:04;;;;;;;13.98;4.95;;;;;;;3.33;97.16;98669.31;1627542;86;28153;-68
2023/12/21 04:05:32;;;;;;;12.60;4.12;;;;;;;3.32;97.07;98665.86;1629455;86;26170;-68
2023/12/21 04:08:00;;;;;;;12.03;4.67;;;;;;;3.30;97.11;98662.70;1633885;86;25428;-68
2023/12/21 04:10:27;;;;;;;10.55;4.78;;;;;;;3.30;97.09;98661.36;1630197;85;25628;-68
2023/12/21 04:12:54;;;;;;;10.63;4.12;;;;;;;3.29;97.16;98654.42;1607696;87;25967;-67
2023/12/21 04:15:22;;;;;;;11.40;4.53;;;;;;;3.29;97.33;98644.30;1628051;85;27333;-67
2023/12/21 04:17:49;;;;;;;12.47;4.37;;;;;;;3.29;97.19;98641.63;1669919;84;26008;-68
2023/12/21 04:20:17;;;;;;;14.43;4.50;;;;;;;3.27;97.24;98653.94;1613265;85;25948;-67
2023/12/21 04:22:44;;;;;;;11.97;4.37;;;;;;;3.28;97.47;98648.05;1639658;85;25764;-67
2023/12/21 04:25:11;;;;;;;11.63;4.65;;;;;;;3.26;97.46;98636.31;1611267;86;25480;-68
2023/12/21 04:27:40;;;;;;;12.60;4.47;;;;;;;3.27;97.53;98642.44;1662374;83;28056;-68
2023/12/21 04:30:11;;;;;;;10.93;4.42;;;;;;;3.27;97.71;98640.58;1671558;84;26088;-68
2023/12/21 04:32:38;;;;;;;12.13;4.30;;;;;;;3.27;97.80;98641.92;1643531;86;25575;-68
2023/12/21 04:35:10;;;;;;;13.20;4.45;;;;;;;3.27;97.80;98636.58;1613634;87;25957;-67
2023/12/21 04:37:37;;;;;;;12.88;3.83;;;;;;;3.27;97.93;98626.41;1654380;84;25672;-68
2023/12/21 04:40:05;;;;;;;9.73;4.20;;;;;;;3.28;97.91;98620.77;1636473;86;27407;-68
2023/12/21 04:42:34;;;;;;;12.82;3.98;;;;;;;3.28;98.09;98623.44;1612293;86;25917;-68
2023/12/21 04:45:01;;;;;;;9.70;4.25;;;;;;;3.30;97.97;98627.95;1633667;85;25494;-68
2023/12/21 04:47:28;;;;;;;9.98;4.00;;;;;;;3.29;97.92;98614.34;1674591;84;25553;-68
2023/12/21 04:49:56;;;;;;;10.05;4.15;;;;;;;3.28;98.06;98603.95;1664162;84;26081;-68
2023/12/21 04:52:23;;;;;;;9.43;4.30;;;;;;;3.28;98.19;98604.73;1623254;86;27706;-68
2023/12/21 04:54:49;;;;;;;9.13;4.40;;;;;;;3.29;98.24;98605.55;1638967;85;25501;-68
2023/12/21 04:57:16;;;;;;;9.78;4.10;;;;;;;3.29;98.36;98601.53;1673418;84;25930;-68
2023/12/21 04:59:43;;;;;;;12.58;4.87;;;;;;;3.29;98.32;98601.53;1634087;85;25751;-68
2023/12/21 05:02:09;;;;;;;8.63;4.72;;;;;;;3.27;98.19;98587.13;1633224;85;25433;-67
2023/12/21 05:04:36;;;;;;;10.93;4.75;;;;;;;3.27;98.23;98591.14;1629647;86;27337;-67
2023/12/21 05:07:08;;;;;;;6.92;4.37;;;;;;;3.26;98.45;98582.09;1631059;85;25924;-67
2023/12/21 05:09:33;;;;;;;10.00;4.87;;;;;;;3.26;98.61;98584.20;1638550;85;25681;-67
2023/12/21 05:12:02;;;;;;;7.17;4.60;;;;;;;3.25;98.68;98584.50;1651983;85;26652;-67
2023/12/21 05:14:29;;;;;;;9.43;4.87;;;;;;;3.23;98.84;98572.00;1647424;84;25969;-67
2023/12/21 05:16:55;;;;;;;8.53;4.45;;;;;;;3.21;99.00;98566.95;1639473;85;27825;-67
2023/12/21 05:19:23;;;;;;;11.10;4.90;;;;;;;3.19;99.05;98563.80;1623394;86;25620;-68
2023/12/21 05:21:52;;;;;;;9.75;4.78;;;;;;;3.18;99.21;98565.69;1636491;86;35425;-68
2023/12/21 05:24:20;;;;;;;9.75;4.97;;;;;;;3.16;99.27;98548.37;1633808;86;26616;-68
2023/12/21 05:26:49;;;;;;;7.45;4.20;;;;;;;3.14;99.31;98543.88;1634131;86;25636;-68
2023/12/21 05:29:17;;;;;;;13.32;5.17;;;;;;;3.11;99.50;98551.16;1633968;86;27257;-67
2023/12/21 05:31:46;;;;;;;9.95;5.03;;;;;;;3.10;99.55;98543.69;1630460;86;25816;-67
2023/12/21 05:34:14;;;;;;;7.47;5.15;;;;;;;3.08;99.84;98533.86;1607436;87;25194;-67
2023/12/21 05:36:43;;;;;;;9.70;4.87;;;;;;;3.08;99.97;98525.03;1648919;85;33227;-67
2023/12/21 05:39:11;;;;;;;8.33;4.25;;;;;;;3.05;100.00;98524.30;1644040;85;25477;-67
2023/12/21 05:41:41;;;;;;;6.95;4.78;;;;;;;3.04;100.00;98524.85;1640806;85;27970;-65
2023/12/21 05:44:09;;;;;;;6.55;4.83;;;;;;;3.03;100.00;98521.95;1629547;86;25887;-65
2023/12/21 05:46:39;;;;;;;8.20;4.72;;;;;;;3.03;100.00;98523.30;1626711;86;26015;-66
2023/12/21 05:49:07;;;;;;;9.03;4.97;;;;;;;3.01;100.00;98510.76;1659582;85;25629;-67
2023/12/21 05:51:34;;;;;;;6.58;4.50;;;;;;;2.99;100.00;98508.39;1632249;85;25844;-66
2023/12/21 05:54:01;;;;;;;6.50;4.20;;;;;;;2.97;100.00;98509.80;1652588;85;27893;-66
2023/12/21 05:56:30;;;;;;;7.50;4.70;;;;;;;2.95;100.00;98501.30;1669517;84;25645;-66
2023/12/21 05:58:58;;;;;;;8.80;4.45;;;;;;;2.92;100.00;98508.02;1631889;86;25916;-66
2023/12/21 06:01:27;;;;;;;8.08;4.28;;;;;;;2.90;100.00;98500.08;1610096;86;25817;-66
2023/12/21 06:03:56;;;;;;;8.78;4.67;;;;;;;2.88;100.00;98500.91;1646687;86;25481;-66
2023/12/21 06:06:24;;;;;;;10.63;4.87;;;;;;;2.84;100.00;98494.60;1643741;86;27579;-66
2023/12/21 06:08:52;;;;;;;8.15;4.42;;;;;;;2.81;100.00;98485.33;1637246;86;25988;-67
2023/12/21 06:11:18;;;;;;;6.58;4.20;;;;;;;2.80;100.00;98494.41;1644180;85;25467;-65
2023/12/21 06:13:47;;;;;;;6.10;4.25;;;;;;;2.77;100.00;98492.34;1635021;86;25917;-67
2023/12/21 06:16:16;;;;;;;7.15;4.15;;;;;;;2.75;100.00;98484.63;1620228;85;25670;-66
2023/12/21 06:18:44;;;;;;;7.57;4.33;;;;;;;2.72;100.00;98481.22;1621470;86;26867;-65
2023/12/21 06:21:15;;;;;;;9.25;4.65;;;;;;;2.70;100.00;98475.40;1633057;86;26211;-66
2023/12/21 06:23:43;;;;;;;7.87;4.30;;;;;;;2.71;100.00;98480.21;1671911;84;25434;-66
2023/12/21 06:26:12;;;;;;;6.15;3.85;;;;;;;2.71;100.00;98470.88;1674738;84;25750;-66
2023/12/21 06:28:42;;;;;;;7.45;4.00;;;;;;;2.71;100.00;98465.53;1639883;86;25915;-67
2023/12/21 06:31:14;;;;;;;6.25;4.10;;;;;;;2.82;100.00;98473.53;1663068;84;27427;-65
2023/12/21 06:33:40;;;;;;;6.55;4.00;;;;;;;2.71;100.00;98451.63;1675133;84;26629;-65
2023/12/21 06:36:09;;;;;;;5.08;3.77;;;;;;;2.72;100.00;98461.20;1625963;86;25488;-65
2023/12/21 06:38:37;;;;;;;6.23;4.20;;;;;;;2.80;100.00;98467.72;1631029;85;26329;-65
2023/12/21 06:41:05;;;;;;;5.17;4.10;;;;;;;2.80;100.00;98467.72;1647667;86;25883;-65
2023/12/21 06:43:32;;;;;;;7.03;4.58;;;;;;;2.69;100.00;98447.14;1658064;84;27721;-65
2023/12/21 06:46:02;;;;;;;8.38;4.10;;;;;;;2.69;100.00;98447.66;1658666;84;25667;-66
2023/12/21 06:48:32;;;;;;;6.83;4.45;;;;;;;2.68;100.00;98439.43;1626117;86;25821;-65
2023/12/21 06:51:00;;;;;;;6.50;4.10;;;;;;;2.66;100.00;98434.39;1630920;86;25480;-64
2023/12/21 06:53:29;;;;;;;4.20;3.17;;;;;;;2.66;100.00;98437.61;1657550;83;25610;-70
2023/12/21 06:55:58;;;;;;;3.83;3.35;;;;;;;2.63;100.00;98428.31;1607477;87;28168;-69
2023/12/21 06:58:27;;;;;;;5.72;3.50;;;;;;;2.60;100.00;98423.02;1636806;86;25570;-69
2023/12/21 07:00:55;;;;;;;4.72;3.50;;;;;;;2.58;100.00;98420.42;1628479;86;25692;-69
2023/12/21 07:03:24;;;;;;;4.80;3.25;;;;;;;2.55;100.00;98419.12;1640866;84;26517;-65
2023/12/21 07:05:53;;;;;;;7.80;3.47;;;;;;;2.54;100.00;98407.45;1628315;86;25497;-65
2023/12/21 07:08:21;;;;;;;4.15;3.75;;;;;;;2.51;100.00;98406.16;1640536;85;28344;-65
2023/12/21 07:10:48;;;;;;;5.20;3.45;;;;;;;2.50;100.00;98401.11;1622012;87;25827;-65
2023/12/21 07:13:19;;;;;;;5.03;3.97;;;;;;;2.49;100.00;98392.88;1661468;84;25673;-65
2023/12/21 07:15:45;;;;;;;4.72;3.22;;;;;;;2.49;100.00;98392.88;1634675;86;25871;-65
2023/12/21 07:18:12;;;;;;;6.03;3.90;;;;;;;2.46;100.00;98374.24;1640109;86;25521;-64
2023/12/21 07:20:39;;;;;;;5.50;4.20;;;;;;;2.46;100.00;98380.91;1640202;86;28051;-66
2023/12/21 07:23:05;;;;;;;5.28;3.75;;;;;;;2.45;100.00;98385.22;1606803;87;25736;-66
2023/12/21 07:25:34;;;;;;;6.80;4.00;;;;;;;2.45;100.00;98370.54;1617200;87;25859;-66
2023/12/21 07:28:04;;;;;;;4.78;3.67;;;;;;;2.45;100.00;98370.54;1647048;85;26600;-66
2023/12/21 07:30:32;;;;;;;4.40;3.92;;;;;;;2.45;100.00;98359.31;1633569;86;25494;-67
2023/12/21 07:32:59;;;;;;;4.78;3.98;;;;;;;2.47;100.00;98352.34;1624552;86;28372;-67
2023/12/21 07:35:28;;;;;;;7.00;4.47;;;;;;;2.49;100.00;98351.52;1660731;84;25730;-67
2023/12/21 07:37:55;;;;;;;8.28;4.12;;;;;;;2.48;100.00;98338.70;1661713;84;25739;-66
2023/12/21 07:40:22;;;;;;;6.60;5.20;;;;;;;2.50;100.00;98341.06;1641439;86;26461;-67
2023/12/21 07:42:48;;;;;;;5.53;4.70;;;;;;;2.51;100.00;98321.30;1645075;86;25462;-67
2023/12/21 07:45:24;;;;;;;6.15;4.85;;;;;;;2.55;100.00;98323.59;1635352;85;28359;-67
2023/12/21 07:47:50;;;;;;;7.90;4.90;;;;;;;2.56;100.00;98318.52;1626365;86;25583;-66
2023/12/21 07:50:29;;;;;;;7.08;4.72;;;;;;;2.59;100.00;98316.02;1634925;85;25581;-66
2023/12/21 07:52:58;;;;;;;7.20;5.22;;;;;;;2.60;100.00;98309.57;1640532;85;25997;-66
2023/12/21 07:55:25;;;;;;;7.50;4.97;;;;;;;2.63;100.00;98310.86;1640171;85;25781;-66
2023/12/21 07:57:52;;;;;;;7.10;5.25;;;;;;;2.63;100.00;98310.86;1621962;86;27860;-65
2023/12/21 08:00:20;;;;;;;6.80;4.62;;;;;;;2.67;100.00;98311.03;1621021;85;25799;-67
2023/12/21 08:02:49;;;;;;;7.15;5.47;;;;;;;2.67;100.00;98312.37;1650014;85;25613;-65
2023/12/21 08:05:22;;;;;;;6.55;5.72;;;;;;;2.68;100.00;98293.37;1638136;84;26414;-67
2023/12/21 08:07:48;;;;;;;6.12;5.17;;;;;;;2.72;100.00;98289.55;1634823;85;25682;-68
2023/12/21 08:10:18;;;;;;;6.85;5.30;;;;;;;2.74;100.00;98280.16;1631592;86;27719;-68
2023/12/21 08:12:46;;;;;;;6.12;5.30;;;;;;;2.79;100.00;98276.55;1653569;85;25857;-67
2023/12/21 08:15:14;;;;;;;6.25;5.53;;;;;;;2.80;100.00;98274.12;1625025;86;25658;-67
2023/12/21 08:17:44;;;;;;;6.53;5.47;;;;;;;2.82;100.00;98274.61;1640160;85;26636;-67
2023/12/21 08:20:12;;;;;;;;;;;;;;;2.84;100.00;98267.07;1633746;86;25904;-67
2023/12/21 08:22:39;;;;;;;5.53;4.57;;;;;;;2.85;100.00;98259.87;1603260;87;27675;-67
2023/12/21 08:25:08;;;;;;;7.47;5.58;;;;;;;2.86;100.00;98256.08;1628269;86;25504;-67
2023/12/21 08:27:35;;;;;;;6.60;5.47;;;;;;;2.86;100.00;98248.88;1626120;85;25753;-68
2023/12/21 08:30:03;;;;;;;7.53;5.47;;;;;;;2.88;100.00;98236.00;1637598;85;26170;-67
2023/12/21 08:32:30;;;;;;;7.50;6.22;;;;;;;2.90;100.00;98247.72;1601012;85;25834;-68
2023/12/21 08:34:57;;;;;;;7.25;5.60;;;;;;;2.86;100.00;98230.19;1592994;86;27583;-66
2023/12/21 08:37:29;;;;;;;8.80;5.80;;;;;;;2.88;100.00;98218.64;1612496;84;26146;-69
2023/12/21 08:39:55;;;;;;;5.78;4.80;;;;;;;2.88;100.00;98212.50;1634388;84;31977;-69
2023/12/21 08:42:23;;;;;;;5.87;5.10;;;;;;;2.90;100.00;98204.43;1601375;85;27022;-67
2023/12/21 08:47:32;;;;;;;6.67;4.70;;;;;;;3.03;100.00;98193.94;1893329;75;34665;-70
2023/12/21 08:50:03;;;;;;;5.95;4.47;;;;;;;2.99;100.00;98184.42;1861451;77;25351;-68
2023/12/21 08:52:27;;;;;;;4.78;4.25;;;;;;;2.97;100.00;98179.95;1762819;80;27506;-70
2023/12/21 08:54:53;;;;;;;8.60;5.10;;;;;;;3.01;100.00;98182.78;1791114;80;25371;-72
2023/12/21 08:57:23;;;;;;;4.72;4.20;;;;;;;3.01;100.00;98163.53;1791178;80;25512;-72
2023/12/21 08:59:51;;;;;;;4.80;3.98;;;;;;;3.02;100.00;98160.33;1791716;80;25480;-80
2023/12/21 09:02:19;;;;;;;3.80;3.47;;;;;;;3.03;100.00;98158.69;1763909;80;25267;-83
2023/12/21 09:04:47;;;;;;;4.40;3.90;;;;;;;3.03;100.00;98149.87;1792010;80;27532;-78
2023/12/21 09:07:16;;;;;;;3.87;3.58;;;;;;;3.05;100.00;98149.81;1792008;80;25447;-84
2023/12/21 09:09:43;;;;;;;3.90;2.90;;;;;;;3.06;100.00;98133.22;1792224;80;25618;-81
2023/12/21 09:12:12;;;;;;;4.05;3.37;;;;;;;3.06;100.00;98131.33;1792999;80;25158;-86
2023/12/21 09:14:38;;;;;;;4.00;3.60;;;;;;;3.09;100.00;98117.91;1793233;80;25154;-85
2023/12/21 09:17:05;;;;;;;5.40;3.77;;;;;;;3.09;100.00;98125.37;1793016;80;27639;-79
2023/12/21 09:19:34;;;;;;;3.55;3.25;;;;;;;3.09;100.00;98127.27;1793413;80;25603;-85
2023/12/21 09:22:00;;;;;;;4.03;3.50;;;;;;;3.11;100.00;98109.03;1793794;80;25185;-83
2023/12/21 09:24:26;;;;;;;3.42;3.12;;;;;;;3.08;100.00;98095.77;1794206;79;25386;-81
2023/12/21 09:26:53;;;;;;;5.15;3.47;;;;;;;3.11;100.00;98093.78;1793965;80;25196;-79
2023/12/21 09:29:20;;;;;;;4.60;3.77;;;;;;;3.13;100.00;98080.11;1793174;80;27408;-77
2023/12/21 09:31:46;;;;;;;4.45;3.65;;;;;;;3.13;100.00;98078.25;1792179;80;25991;-78
2023/12/21 09:34:13;;;;;;;4.05;3.60;;;;;;;3.13;100.00;98070.23;1792303;80;25590;-80
2023/12/21 09:36:40;;;;;;;5.42;3.52;;;;;;;3.14;100.00;98066.45;1792184;80;25714;-82
2023/12/21 09:39:07;;;;;;;4.25;3.55;;;;;;;3.16;100.00;98058.90;1791761;80;25182;-79
2023/12/21 09:41:34;;;;;;;5.62;3.55;;;;;;;3.18;100.00;98057.25;1763354;80;28111;-81
2023/12/21 09:44:02;;;;;;;4.05;3.40;;;;;;;3.17;100.00;98032.99;1791870;80;25660;-82
2023/12/21 09:46:37;;;;;;;4.10;3.37;;;;;;;3.20;100.00;98032.34;1793761;80;25318;-82
2023/12/21 09:49:01;;;;;;;4.50;3.30;;;;;;;3.21;100.00;98033.92;1794706;80;25655;-79
2023/12/21 09:51:28;;;;;;;3.45;3.15;;;;;;;3.22;100.00;98021.34;1768536;80;25203;-81
2023/12/21 09:53:56;;;;;;;6.65;3.55;;;;;;;3.22;100.00;98022.14;1795032;80;27601;-82
2023/12/21 09:56:23;;;;;;;4.47;3.65;;;;;;;3.23;100.00;98013.02;1795491;80;25188;-82
2023/12/21 09:58:50;;;;;;;4.05;3.65;;;;;;;3.24;100.00;98008.47;1794908;80;25227;-84
2023/12/21 10:01:17;;;;;;;4.45;3.87;;;;;;;3.25;100.00;97998.81;1794546;79;25157;-68
2023/12/21 10:03:44;;;;;;;5.20;4.53;;;;;;;3.28;100.00;97998.16;1793686;80;25544;-70
2023/12/21 10:06:12;;;;;;;25.05;16.87;;;;;;;3.34;100.00;98002.24;1767203;80;27872;-70
2023/12/21 10:08:41;;;;;;;5.97;3.60;;;;;;;3.39;100.00;97986.60;1793581;79;25618;-64
2023/12/21 10:11:08;;;;;;;;;;;;;;;3.43;100.00;97984.08;1812781;79;25528;-73
2023/12/21 10:13:36;;;;;;;4.50;3.65;;;;;;;3.45;100.00;97973.84;1810066;79;25886;-75
2023/12/21 10:16:03;;;;;;;3.90;3.50;;;;;;;3.45;100.00;97971.17;1793782;80;25506;-74
2023/12/21 10:18:30;;;;;;;4.15;3.72;;;;;;;3.45;100.00;97972.52;1793758;79;27427;-75
2023/12/21 10:20:59;;;;;;;3.52;3.22;;;;;;;3.45;100.00;97965.27;1793579;80;25428;-73
2023/12/21 10:23:26;;;;;;;3.60;3.30;;;;;;;3.44;100.00;97955.70;1793934;80;25441;-71
2023/12/21 10:25:54;;;;;;;4.10;3.70;;;;;;;3.44;100.00;97950.89;1793616;80;25470;-69
2023/12/21 10:28:24;;;;;;;5.70;3.90;;;;;;;3.45;100.00;97950.57;1793777;80;25640;-70
2023/12/21 10:31:04;;;;;;;4.20;3.60;;;;;;;3.46;100.00;97946.03;1793682;80;27524;-72
2023/12/21 10:33:42;;;;;;;4.17;3.15;;;;;;;3.46;100.00;97936.67;1793587;80;25387;-70
2023/12/21 10:36:09;;;;;;;4.92;3.98;;;;;;;3.49;100.00;97927.99;1793630;80;25548;-70
2023/12/21 10:38:36;;;;;;;6.05;4.08;;;;;;;3.49;100.00;97925.32;1793590;80;25420;-69
2023/12/21 10:41:05;;;;;;;4.40;3.75;;;;;;;3.49;100.00;97919.98;1767043;80;25584;-70
2023/12/21 10:43:35;;;;;;;4.37;3.98;;;;;;;3.49;100.00;97894.05;1793921;79;27468;-72
2023/12/21 10:46:03;;;;;;;4.80;4.12;;;;;;;3.52;100.00;97899.30;1788025;79;25572;-72
2023/12/21 10:48:37;;;;;;;5.17;3.62;;;;;;;3.53;100.00;97894.19;1791135;80;25461;-73
2023/12/21 10:51:04;;;;;;;4.08;3.67;;;;;;;3.53;100.00;97890.19;1788858;80;25490;-72
2023/12/21 10:53:31;;;;;;;6.20;4.15;;;;;;;3.53;100.00;97886.95;1788852;80;25541;-72
2023/12/21 10:55:58;;;;;;;4.80;3.40;;;;;;;3.54;100.00;97871.69;1788961;80;27466;-74
2023/12/21 10:58:26;;;;;;;4.60;3.75;;;;;;;3.57;100.00;97870.28;1789023;80;25544;-81
2023/12/21 11:00:55;;;;;;;4.40;3.60;;;;;;;3.56;100.00;97865.49;1789326;80;25430;-76
2023/12/21 11:03:22;;;;;;;5.17;3.90;;;;;;;3.59;100.00;97857.37;1790063;80;25451;-72
2023/12/21 11:05:49;;;;;;;6.10;4.17;;;;;;;3.59;100.00;97858.70;1764389;80;25612;-73
2023/12/21 11:08:18;;;;;;;5.10;4.22;;;;;;;3.61;100.00;97839.91;1788911;80;27451;-77
2023/12/21 11:10:46;;;;;;;5.63;4.33;;;;;;;3.64;100.00;97839.80;1789083;80;25616;-75
2023/12/21 11:13:13;;;;;;;4.72;4.33;;;;;;;3.65;100.00;97827.45;1764464;80;25618;-73
2023/12/21 11:15:41;;;;;;;5.12;4.05;;;;;;;3.66;100.00;97819.68;1788633;80;25388;-72
2023/12/21 11:18:15;;;;;;;20.32;13.93;;;;;;;3.69;100.00;97815.56;1787405;80;25691;-69
2023/12/21 11:20:50;;;;;;;47.25;30.92;;;;;;;3.72;100.00;97814.36;1762844;81;27485;-70
2023/12/21 11:23:17;;;;;;;9.70;6.17;;;;;;;3.76;100.00;97811.81;1762720;81;25422;-66
2023/12/21 11:25:43;;;;;;;4.83;4.35;;;;;;;3.82;100.00;97813.77;1764111;81;25401;-65
2023/12/21 11:28:13;;;;;;;5.53;4.33;;;;;;;3.91;100.00;97787.73;1764548;81;25470;-79
2023/12/21 11:30:40;;;;;;;6.45;4.15;;;;;;;3.96;100.00;97775.50;1764460;81;25712;-65
2023/12/21 11:33:11;;;;;;;4.60;3.83;;;;;;;3.99;100.00;97776.20;1763144;81;27350;-78
2023/12/21 11:35:38;;;;;;;6.53;3.83;;;;;;;4.06;100.00;97768.98;1763830;81;25676;-77
2023/12/21 11:38:06;;;;;;;5.70;4.22;;;;;;;4.07;100.00;97749.13;1738079;81;25637;-78
2023/12/21 11:40:36;;;;;;;4.92;4.33;;;;;;;4.07;100.00;97749.94;1763826;81;25711;-78